Time;durP1;ratioP1;P1;durP2;ratioP2;P2;SDS_P1;SDS_P2;PMS_P1;PMS_P2;Temp;Humidity;BMP_temperature;BMP_pressure;BME280_temperature;BME280_humidity;BME280_pressure;Samples;Min_cycle;Max_cycle;Signal;HPM_P1;HPM_P2
2023/05/07 00:01:28;;;;;;;;;;;;;;;;;;5046557;28;5581;-55
2023/05/07 00:03:53;;;;;;;;;;;;;;;;;;5050639;28;4453;-57
2023/05/07 00:06:19;;;;;;;;;;;;;;;;;;5050915;28;1243;-56
2023/05/07 00:08:44;;;;;;;;;;;;;;;;;;5050342;28;6523;-54
2023/05/07 00:11:10;;;;;;;;;;;;;;;;;;5041135;28;4677;-54
2023/05/07 00:13:35;;;;;;;;;;;;;;;;;;5050617;28;4484;-54
2023/05/07 00:16:03;;;;;;;;;;;;;;;;;;5050209;28;4506;-57
2023/05/07 00:18:29;;;;;;;;;;;;;;;;;;5050838;28;1096;-55
2023/05/07 00:20:54;;;;;;;;;;;;;;;;;;5050170;28;4834;-57
2023/05/07 00:23:19;;;;;;;;;;;;;;;;;;5050284;28;4977;-54
2023/05/07 00:25:44;;;;;;;;;;;;;;;;;;5045574;28;4472;-55
2023/05/07 00:28:10;;;;;;;;;;;;;;;;;;5049957;28;4485;-55
2023/05/07 00:30:35;;;;;;;;;;;;;;;;;;5050516;28;1196;-53
2023/05/07 00:33:00;;;;;;;;;;;;;;;;;;5049642;28;4404;-56
2023/05/07 00:35:25;;;;;;;;;;;;;;;;;;5049755;28;4630;-56
2023/05/07 00:37:51;;;;;;;;;;;;;;;;;;5049781;28;4511;-55
2023/05/07 00:40:16;;;;;;;;;;;;;;;;;;5042407;28;4647;-56
2023/05/07 00:42:41;;;;;;;;;;;;;;;;;;5050176;28;1259;-56
2023/05/07 00:45:07;;;;;;;;;;;;;;;;;;5049578;28;4701;-56
2023/05/07 00:47:32;;;;;;;;;;;;;;;;;;5049958;28;4605;-57
2023/05/07 00:49:58;;;;;;;;;;;;;;;;;;5049548;28;4885;-57
2023/05/07 00:52:23;;;;;;;;;;;;;;;;;;5045769;28;4538;-57
2023/05/07 00:54:49;;;;;;;;;;;;;;;;;;5048761;28;1342;-55
2023/05/07 00:57:14;;;;;;;;;;;;;;;;;;5049083;28;4573;-57
2023/05/07 00:59:40;;;;;;;;;;;;;;;;;;5049304;28;5304;-56
2023/05/07 01:02:05;;;;;;;;;;;;;;;;;;5047781;28;5045;-54
2023/05/07 01:04:31;;;;;;;;;;;;;;;;;;5049141;28;4547;-54
2023/05/07 01:06:56;;;;;;;;;;;;;;;;;;5048750;28;4478;-55
2023/05/07 01:09:21;;;;;;;;;;;;;;;;;;5047004;28;6384;-55
2023/05/07 01:11:47;;;;;;;;;;;;;;;;;;5053126;28;4952;-56
2023/05/07 01:14:12;;;;;;;;;;;;;;;;;;5060855;28;4430;-57
2023/05/07 01:16:37;;;;;;;;;;;;;;;;;;5046815;28;4658;-55
2023/05/07 01:19:03;;;;;;;;;;;;;;;;;;5049073;28;4837;-57
2023/05/07 01:21:28;;;;;;;;;;;;;;;;;;5031701;28;1094;-57
2023/05/07 01:23:53;;;;;;;;;;;;;;;;;;5054311;28;4407;-57
2023/05/07 01:26:19;;;;;;;;;;;;;;;;;;5046930;28;4682;-51
2023/05/07 01:28:45;;;;;;;;;;;;;;;;;;5048984;28;4851;-57
2023/05/07 01:31:10;;;;;;;;;;;;;;;;;;5048768;28;4644;-55
2023/05/07 01:33:35;;;;;;;;;;;;;;;;;;5048001;28;1262;-55
2023/05/07 01:36:03;;;;;;;;;;;;;;;;;;5048756;28;4960;-55
2023/05/07 01:38:28;;;;;;;;;;;;;;;;;;5048347;28;4678;-57
2023/05/07 01:40:53;;;;;;;;;;;;;;;;;;5041297;28;4652;-54
2023/05/07 01:43:19;;;;;;;;;;;;;;;;;;5048634;28;4438;-56
2023/05/07 01:45:44;;;;;;;;;;;;;;;;;;5049291;28;1160;-56
2023/05/07 01:48:10;;;;;;;;;;;;;;;;;;5048653;28;4455;-57
2023/05/07 01:50:35;;;;;;;;;;;;;;;;;;5047114;28;4463;-53
2023/05/07 01:53:00;;;;;;;;;;;;;;;;;;5047073;28;4903;-57
2023/05/07 01:55:26;;;;;;;;;;;;;;;;;;5063912;28;4525;-56
2023/05/07 01:57:51;;;;;;;;;;;;;;;;;;5049076;28;1979;-56
2023/05/07 02:00:17;;;;;;;;;;;;;;;;;;5047870;28;4500;-56
2023/05/07 02:02:42;;;;;;;;;;;;;;;;;;5044443;28;4660;-55
2023/05/07 02:05:08;;;;;;;;;;;;;;;;;;5048256;28;4612;-53
2023/05/07 02:07:33;;;;;;;;;;;;;;;;;;5048660;28;4533;-55
2023/05/07 02:09:58;;;;;;;;;;;;;;;;;;5042719;28;6297;-55
2023/05/07 02:12:23;;;;;;;;;;;;;;;;;;5046565;28;1188;-55
2023/05/07 02:14:49;;;;;;;;;;;;;;;;;;5048550;28;4489;-55
2023/05/07 02:17:14;;;;;;;;;;;;;;;;;;5052083;28;4497;-56
2023/05/07 02:19:39;;;;;;;;;;;;;;;;;;5052846;28;4447;-56
2023/05/07 02:22:05;;;;;;;;;;;;;;;;;;5052740;28;4736;-55
2023/05/07 02:24:30;;;;;;;;;;;;;;;;;;5053349;28;1171;-56
2023/05/07 02:26:55;;;;;;;;;;;;;;;;;;5052557;28;4403;-56
2023/05/07 02:29:20;;;;;;;;;;;;;;;;;;5050992;28;4632;-57
2023/05/07 02:31:47;;;;;;;;;;;;;;;;;;5052731;28;5112;-56
2023/05/07 02:34:12;;;;;;;;;;;;;;;;;;5052491;28;4440;-56
2023/05/07 02:36:37;;;;;;;;;;;;;;;;;;5052725;28;1972;-53
2023/05/07 02:39:02;;;;;;;;;;;;;;;;;;5052367;28;5267;-56
2023/05/07 02:41:28;;;;;;;;;;;;;;;;;;5045121;28;5047;-51
2023/05/07 02:43:53;;;;;;;;;;;;;;;;;;5052309;28;4476;-54
2023/05/07 02:46:18;;;;;;;;;;;;;;;;;;5052813;28;4635;-54
2023/05/07 02:48:44;;;;;;;;;;;;;;;;;;5053071;28;1112;-55
2023/05/07 02:51:09;;;;;;;;;;;;;;;;;;5048950;28;4615;-54
2023/05/07 02:53:34;;;;;;;;;;;;;;;;;;5044436;28;4836;-54
2023/05/07 02:56:01;;;;;;;;;;;;;;;;;;5057933;28;5013;-55
2023/05/07 02:58:26;;;;;;;;;;;;;;;;;;5048862;28;4458;-56
2023/05/07 03:00:52;;;;;;;;;;;;;;;;;;5051838;28;4507;-53
2023/05/07 03:03:17;;;;;;;;;;;;;;;;;;5048949;28;1139;-53
2023/05/07 03:05:42;;;;;;;;;;;;;;;;;;5050670;28;4378;-55
2023/05/07 03:08:07;;;;;;;;;;;;;;;;;;5061503;28;4596;-53
2023/05/07 03:10:33;;;;;;;;;;;;;;;;;;5043224;28;6845;-55
2023/05/07 03:12:58;;;;;;;;;;;;;;;;;;5051673;28;4603;-56
2023/05/07 03:15:23;;;;;;;;;;;;;;;;;;5054993;28;1647;-56
2023/05/07 03:17:48;;;;;;;;;;;;;;;;;;5051660;28;4716;-53
2023/05/07 03:20:14;;;;;;;;;;;;;;;;;;5051561;28;4817;-51
2023/05/07 03:22:39;;;;;;;;;;;;;;;;;;5052665;28;4527;-54
2023/05/07 03:25:05;;;;;;;;;;;;;;;;;;5051335;28;5000;-54
2023/05/07 03:27:30;;;;;;;;;;;;;;;;;;5039831;28;1205;-54
2023/05/07 03:29:55;;;;;;;;;;;;;;;;;;5058508;28;4938;-55
2023/05/07 03:32:20;;;;;;;;;;;;;;;;;;5063643;28;4684;-55
2023/05/07 03:34:46;;;;;;;;;;;;;;;;;;5051033;28;4625;-55
2023/05/07 03:37:11;;;;;;;;;;;;;;;;;;5050890;28;4759;-55
2023/05/07 03:39:36;;;;;;;;;;;;;;;;;;5049051;28;1730;-56
2023/05/07 03:42:02;;;;;;;;;;;;;;;;;;5051130;28;4633;-56
2023/05/07 03:44:27;;;;;;;;;;;;;;;;;;5052880;28;4625;-54
2023/05/07 03:46:53;;;;;;;;;;;;;;;;;;5062821;28;4435;-55
2023/05/07 03:49:18;;;;;;;;;;;;;;;;;;5054492;28;4618;-54
2023/05/07 03:51:43;;;;;;;;;;;;;;;;;;5055551;28;1179;-56
2023/05/07 03:54:08;;;;;;;;;;;;;;;;;;5050250;28;4603;-56
2023/05/07 03:56:34;;;;;;;;;;;;;;;;;;5030662;28;4668;-53
2023/05/07 03:58:59;;;;;;;;;;;;;;;;;;5054817;28;4706;-53
2023/05/07 04:01:25;;;;;;;;;;;;;;;;;;5048604;28;4543;-54
2023/05/07 04:03:50;;;;;;;;;;;;;;;;;;5061590;28;1627;-54
2023/05/07 04:06:15;;;;;;;;;;;;;;;;;;5047264;28;4535;-54
2023/05/07 04:08:41;;;;;;;;;;;;;;;;;;5059200;28;6189;-56
2023/05/07 04:11:06;;;;;;;;;;;;;;;;;;5042348;28;4671;-54
2023/05/07 04:13:31;;;;;;;;;;;;;;;;;;5049894;28;5122;-55
2023/05/07 04:15:56;;;;;;;;;;;;;;;;;;5055123;28;4727;-54
2023/05/07 04:18:22;;;;;;;;;;;;;;;;;;5050752;28;1222;-56
2023/05/07 04:20:47;;;;;;;;;;;;;;;;;;5050121;28;4525;-55
2023/05/07 04:23:13;;;;;;;;;;;;;;;;;;5051808;28;4505;-56
2023/05/07 04:25:38;;;;;;;;;;;;;;;;;;5049994;28;4638;-55
2023/05/07 04:28:03;;;;;;;;;;;;;;;;;;5050310;28;5576;-55
2023/05/07 04:30:28;;;;;;;;;;;;;;;;;;5060398;28;1737;-54
2023/05/07 04:32:54;;;;;;;;;;;;;;;;;;5049757;28;4605;-56
2023/05/07 04:35:19;;;;;;;;;;;;;;;;;;5048160;28;4517;-56
2023/05/07 04:37:44;;;;;;;;;;;;;;;;;;5050066;28;4646;-56
2023/05/07 04:40:10;;;;;;;;;;;;;;;;;;5048719;28;4800;-55
2023/05/07 04:42:35;;;;;;;;;;;;;;;;;;5058617;28;1477;-54
2023/05/07 04:45:01;;;;;;;;;;;;;;;;;;5055371;28;4497;-56
2023/05/07 04:47:26;;;;;;;;;;;;;;;;;;5051100;28;4956;-53
2023/05/07 04:49:51;;;;;;;;;;;;;;;;;;5055732;28;4499;-56
2023/05/07 04:52:16;;;;;;;;;;;;;;;;;;5051448;28;4961;-55
2023/05/07 04:54:42;;;;;;;;;;;;;;;;;;5050309;28;1104;-52
2023/05/07 04:57:07;;;;;;;;;;;;;;;;;;5055471;28;4443;-55
2023/05/07 04:59:32;;;;;;;;;;;;;;;;;;5050364;28;4596;-55
2023/05/07 05:01:58;;;;;;;;;;;;;;;;;;5051420;28;4515;-55
2023/05/07 05:04:23;;;;;;;;;;;;;;;;;;5060829;28;4601;-56
2023/05/07 05:06:48;;;;;;;;;;;;;;;;;;5050172;28;1032;-55
2023/05/07 05:09:14;;;;;;;;;;;;;;;;;;5049260;28;6416;-54
2023/05/07 05:11:39;;;;;;;;;;;;;;;;;;5041452;28;4534;-54
2023/05/07 05:14:05;;;;;;;;;;;;;;;;;;5057130;28;4708;-55
2023/05/07 05:16:30;;;;;;;;;;;;;;;;;;5055664;28;4560;-52
2023/05/07 05:18:55;;;;;;;;;;;;;;;;;;5048156;28;5503;-52
2023/05/07 05:21:20;;;;;;;;;;;;;;;;;;5057241;28;1579;-55
2023/05/07 05:23:46;;;;;;;;;;;;;;;;;;5054406;28;4496;-56
2023/05/07 05:26:11;;;;;;;;;;;;;;;;;;5048739;28;4804;-53
2023/05/07 05:28:36;;;;;;;;;;;;;;;;;;5048926;28;5288;-54
2023/05/07 05:31:02;;;;;;;;;;;;;;;;;;5057050;28;4979;-55
2023/05/07 05:33:27;;;;;;;;;;;;;;;;;;5048726;28;1326;-56
2023/05/07 05:35:53;;;;;;;;;;;;;;;;;;5048330;28;4686;-55
2023/05/07 05:38:18;;;;;;;;;;;;;;;;;;5048294;28;5225;-56
2023/05/07 05:40:44;;;;;;;;;;;;;;;;;;5044962;28;5049;-55
2023/05/07 05:43:09;;;;;;;;;;;;;;;;;;5048328;28;4443;-56
2023/05/07 05:45:34;;;;;;;;;;;;;;;;;;5051131;28;1683;-56
2023/05/07 05:48:00;;;;;;;;;;;;;;;;;;5040504;28;4883;-56
2023/05/07 05:50:25;;;;;;;;;;;;;;;;;;5046481;28;4968;-55
2023/05/07 05:52:50;;;;;;;;;;;;;;;;;;5059198;28;5072;-56
2023/05/07 05:55:16;;;;;;;;;;;;;;;;;;5048292;28;4530;-56
2023/05/07 05:57:41;;;;;;;;;;;;;;;;;;5048670;28;1937;-56
2023/05/07 06:00:07;;;;;;;;;;;;;;;;;;5050935;28;4778;-53
2023/05/07 06:02:33;;;;;;;;;;;;;;;;;;5050406;28;4625;-57
2023/05/07 06:04:58;;;;;;;;;;;;;;;;;;5048311;28;4449;-54
2023/05/07 06:07:23;;;;;;;;;;;;;;;;;;5048601;28;4437;-55
2023/05/07 06:09:48;;;;;;;;;;;;;;;;;;5048427;28;6423;-55
2023/05/07 06:12:13;;;;;;;;;;;;;;;;;;5044087;28;4754;-55
2023/05/07 06:14:40;;;;;;;;;;;;;;;;;;5046852;28;5124;-53
2023/05/07 06:17:05;;;;;;;;;;;;;;;;;;5054110;28;4926;-57
2023/05/07 06:19:31;;;;;;;;;;;;;;;;;;5048249;28;4497;-56
2023/05/07 06:21:56;;;;;;;;;;;;;;;;;;5048188;28;4444;-56
2023/05/07 06:24:21;;;;;;;;;;;;;;;;;;5046861;28;1203;-56
2023/05/07 06:26:47;;;;;;;;;;;;;;;;;;5059188;28;5319;-55
2023/05/07 06:29:12;;;;;;;;;;;;;;;;;;5048470;28;5076;-56
2023/05/07 06:31:37;;;;;;;;;;;;;;;;;;5055820;28;4688;-56
2023/05/07 06:34:02;;;;;;;;;;;;;;;;;;5056164;28;5009;-53
2023/05/07 06:36:28;;;;;;;;;;;;;;;;;;5048631;28;1925;-55
2023/05/07 06:38:53;;;;;;;;;;;;;;;;;;5047654;28;4833;-56
2023/05/07 06:41:18;;;;;;;;;;;;;;;;;;5041222;28;4802;-56
2023/05/07 06:43:44;;;;;;;;;;;;;;;;;;5057945;28;4905;-53
2023/05/07 06:46:09;;;;;;;;;;;;;;;;;;5047805;28;4898;-53
2023/05/07 06:48:34;;;;;;;;;;;;;;;;;;5059099;28;1495;-55
2023/05/07 06:50:59;;;;;;;;;;;;;;;;;;5047708;28;4405;-55
2023/05/07 06:53:25;;;;;;;;;;;;;;;;;;5047857;28;4460;-54
2023/05/07 06:55:51;;;;;;;;;;;;;;;;;;5050602;28;4856;-55
2023/05/07 06:58:17;;;;;;;;;;;;;;;;;;5047549;28;4590;-55
2023/05/07 07:00:42;;;;;;;;;;;;;;;;;;5047355;28;1706;-55
2023/05/07 07:03:07;;;;;;;;;;;;;;;;;;5058903;28;4543;-52
2023/05/07 07:05:32;;;;;;;;;;;;;;;;;;5064282;28;4610;-55
2023/05/07 07:07:58;;;;;;;;;;;;;;;;;;5053291;28;4595;-54
2023/05/07 07:10:23;;;;;;;;;;;;;;;;;;5043642;28;6559;-55
2023/05/07 07:12:48;;;;;;;;;;;;;;;;;;5052916;28;1854;-53
2023/05/07 07:15:14;;;;;;;;;;;;;;;;;;5062694;28;4647;-56
2023/05/07 07:17:39;;;;;;;;;;;;;;;;;;5056994;28;4436;-56
2023/05/07 07:20:05;;;;;;;;;;;;;;;;;;5052772;28;4882;-56
2023/05/07 07:22:30;;;;;;;;;;;;;;;;;;5057898;28;4661;-56
2023/05/07 07:24:55;;;;;;;;;;;;;;;;;;5050845;28;4477;-55
2023/05/07 07:27:20;;;;;;;;;;;;;;;;;;5054391;28;1758;-56
2023/05/07 07:29:46;;;;;;;;;;;;;;;;;;5060487;28;4464;-54
2023/05/07 07:32:11;;;;;;;;;;;;;;;;;;5048545;28;4521;-56
2023/05/07 07:34:36;;;;;;;;;;;;;;;;;;5046455;28;4666;-57
2023/05/07 07:37:05;;;;;;;;;;;;;;;;;;5061678;28;4483;-58
2023/05/07 07:39:30;;;;;;;;;;;;;;;;;;5049446;28;1781;-58
2023/05/07 07:41:56;;;;;;;;;;;;;;;;;;5046655;28;4413;-58
2023/05/07 07:44:21;;;;;;;;;;;;;;;;;;5049703;28;4803;-57
2023/05/07 07:46:46;;;;;;;;;;;;;;;;;;5041145;28;5014;-57
2023/05/07 07:49:11;;;;;;;;;;;;;;;;;;5047823;28;4525;-58
2023/05/07 07:51:36;;;;;;;;;;;;;;;;;;5048755;28;1667;-59
2023/05/07 07:54:02;;;;;;;;;;;;;;;;;;5049286;28;4451;-60
2023/05/07 07:56:27;;;;;;;;;;;;;;;;;;5051326;28;4724;-59
2023/05/07 07:58:53;;;;;;;;;;;;;;;;;;5051023;28;4542;-60
2023/05/07 08:01:18;;;;;;;;;;;;;;;;;;5051304;28;5110;-55
2023/05/07 08:03:43;;;;;;;;;;;;;;;;;;5063298;28;1096;-58
2023/05/07 08:06:09;;;;;;;;;;;;;;;;;;5056904;28;4450;-56
2023/05/07 08:08:34;;;;;;;;;;;;;;;;;;5052256;28;6297;-60
2023/05/07 08:10:59;;;;;;;;;;;;;;;;;;5051991;28;4481;-60
2023/05/07 08:13:24;;;;;;;;;;;;;;;;;;5049550;28;5153;-64
2023/05/07 08:15:50;;;;;;;;;;;;;;;;;;5058542;28;1666;-67
2023/05/07 08:18:15;;;;;;;;;;;;;;;;;;5056051;28;4837;-60
2023/05/07 08:20:41;;;;;;;;;;;;;;;;;;5053249;28;4598;-57
2023/05/07 08:23:07;;;;;;;;;;;;;;;;;;5053092;28;5509;-61
2023/05/07 08:25:35;;;;;;;;;;;;;;;;;;5053506;28;4619;-61
2023/05/07 08:28:00;;;;;;;;;;;;;;;;;;5052207;28;5934;-60
2023/05/07 08:30:25;;;;;;;;;;;;;;;;;;5056428;28;1737;-63
2023/05/07 08:32:51;;;;;;;;;;;;;;;;;;5058481;28;4445;-67
2023/05/07 08:35:16;;;;;;;;;;;;;;;;;;5048917;28;4634;-64
2023/05/07 08:37:41;;;;;;;;;;;;;;;;;;5060011;28;4834;-65
2023/05/07 08:40:07;;;;;;;;;;;;;;;;;;5039582;28;4531;-61
2023/05/07 08:42:39;;;;;;;;;;;;;;;;;;5043198;28;2897;-66
2023/05/07 08:45:05;;;;;;;;;;;;;;;;;;5051687;28;4789;-65
2023/05/07 08:47:34;;;;;;;;;;;;;;;;;;5053945;28;4814;-68
2023/05/07 08:50:00;;;;;;;;;;;;;;;;;;5047674;28;4559;-63
2023/05/07 08:52:26;;;;;;;;;;;;;;;;;;5060484;28;4537;-60
2023/05/07 08:54:51;;;;;;;;;;;;;;;;;;5058988;28;1661;-68
2023/05/07 08:57:16;;;;;;;;;;;;;;;;;;5057893;28;4398;-67
2023/05/07 08:59:41;;;;;;;;;;;;;;;;;;5052192;28;5114;-66
2023/05/07 09:02:07;;;;;;;;;;;;;;;;;;5055640;28;5966;-62
2023/05/07 09:04:32;;;;;;;;;;;;;;;;;;5052502;28;4982;-59
2023/05/07 09:07:03;;;;;;;;;;;;;;;;;;5063007;28;4825;-63
2023/05/07 09:09:28;;;;;;;;;;;;;;;;;;5056920;28;6486;-67
2023/05/07 09:11:59;;;;;;;;;;;;;;;;;;5052972;28;4417;-68
2023/05/07 09:14:24;;;;;;;;;;;;;;;;;;5044645;28;4518;-71
2023/05/07 09:16:51;;;;;;;;;;;;;;;;;;5049968;28;5124;-73
2023/05/07 09:19:16;;;;;;;;;;;;;;;;;;5053195;28;4967;-68
2023/05/07 09:21:42;;;;;;;;;;;;;;;;;;5049921;28;1681;-65
2023/05/07 09:24:07;;;;;;;;;;;;;;;;;;5054694;28;4412;-65
2023/05/07 09:26:33;;;;;;;;;;;;;;;;;;5053338;28;5077;-63
2023/05/07 09:28:59;;;;;;;;;;;;;;;;;;5063746;28;4673;-61
2023/05/07 09:31:25;;;;;;;;;;;;;;;;;;5046018;28;4594;-65
2023/05/07 09:33:52;;;;;;;;;;;;;;;;;;5051097;28;1861;-63
2023/05/07 09:36:17;;;;;;;;;;;;;;;;;;5052721;28;5061;-67
2023/05/07 09:38:42;;;;;;;;;;;;;;;;;;5055632;28;4426;-68
2023/05/07 09:41:09;;;;;;;;;;;;;;;;;;5047641;28;5102;-64
2023/05/07 09:43:34;;;;;;;;;;;;;;;;;;5052871;28;4449;-64
2023/05/07 09:46:24;;;;;;;;;;;;;;;;;;5048430;28;5455;-69
2023/05/07 09:48:49;;;;;;;;;;;;;;;;;;5052028;28;1834;-68
2023/05/07 09:51:16;;;;;;;;;;;;;;;;;;5049940;28;4575;-59
2023/05/07 09:53:41;;;;;;;;;;;;;;;;;;5050375;28;4632;-66
2023/05/07 09:56:07;;;;;;;;;;;;;;;;;;5054583;28;4705;-68
2023/05/07 09:58:32;;;;;;;;;;;;;;;;;;5051687;28;5593;-58
2023/05/07 10:00:57;;;;;;;;;;;;;;;;;;5053033;28;5179;-60
2023/05/07 10:03:22;;;;;;;;;;;;;;;;;;5042946;28;1632;-61
2023/05/07 10:05:48;;;;;;;;;;;;;;;;;;5057933;28;5132;-59
2023/05/07 10:08:14;;;;;;;;;;;;;;;;;;5027898;28;4515;-59
2023/05/07 10:10:39;;;;;;;;;;;;;;;;;;5040622;28;6725;-59
2023/05/07 10:13:09;;;;;;;;;;;;;;;;;;5063380;28;4707;-59
2023/05/07 10:15:35;;;;;;;;;;;;;;;;;;5063228;28;1301;-61
2023/05/07 10:18:00;;;;;;;;;;;;;;;;;;5064220;28;5023;-61
2023/05/07 10:20:25;;;;;;;;;;;;;;;;;;5060630;28;4442;-63
2023/05/07 10:22:50;;;;;;;;;;;;;;;;;;5058554;28;4463;-67
2023/05/07 10:25:25;;;;;;;;;;;;;;;;;;5063931;28;4914;-66
2023/05/07 10:27:51;;;;;;;;;;;;;;;;;;5055183;28;1268;-64
2023/05/07 10:30:26;;;;;;;;;;;;;;;;;;5040268;28;4586;-62
2023/05/07 10:32:53;;;;;;;;;;;;;;;;;;5063304;28;4818;-64
2023/05/07 10:35:22;;;;;;;;;;;;;;;;;;5065088;28;4657;-61
2023/05/07 10:37:48;;;;;;;;;;;;;;;;;;5058112;28;4723;-63
2023/05/07 10:40:13;;;;;;;;;;;;;;;;;;5058912;28;4546;-65
2023/05/07 10:42:38;;;;;;;;;;;;;;;;;;5065459;28;1343;-65
2023/05/07 10:45:16;;;;;;;;;;;;;;;;;;5060159;28;4460;-61
2023/05/07 10:48:20;;;;;;;;;;;;;;;;;;5066580;28;4902;-64
2023/05/07 10:50:48;;;;;;;;;;;;;;;;;;4989595;28;4486;-62
2023/05/07 10:53:16;;;;;;;;;;;;;;;;;;4995884;28;5099;-61
2023/05/07 10:55:41;;;;;;;;;;;;;;;;;;5008451;28;5010;-62
2023/05/07 10:58:22;;;;;;;;;;;;;;;;;;5049393;28;4708;-60
2023/05/07 11:00:50;;;;;;;;;;;;;;;;;;5049634;28;1238;-62
2023/05/07 11:03:15;;;;;;;;;;;;;;;;;;5048447;28;5025;-63
2023/05/07 11:05:40;;;;;;;;;;;;;;;;;;5050863;28;5373;-60
2023/05/07 11:08:06;;;;;;;;;;;;;;;;;;5052642;28;4643;-59
2023/05/07 11:10:50;;;;;;;;;;;;;;;;;;5049422;28;6468;-61
2023/05/07 11:13:15;;;;;;;;;;;;;;;;;;5064343;28;4847;-60
2023/05/07 11:15:43;;;;;;;;;;;;;;;;;;5041344;28;1170;-61
2023/05/07 11:18:08;;;;;;;;;;;;;;;;;;5051610;28;4582;-61
2023/05/07 11:20:52;;;;;;;;;;;;;;;;;;5050626;28;4631;-62
2023/05/07 11:23:32;;;;;;;;;;;;;;;;;;5049969;28;4606;-62
2023/05/07 11:26:02;;;;;;;;;;;;;;;;;;5050838;28;5084;-62
2023/05/07 11:28:28;;;;;;;;;;;;;;;;;;5051622;28;5105;-62
2023/05/07 11:30:53;;;;;;;;;;;;;;;;;;5038113;28;4524;-60
2023/05/07 11:33:19;;;;;;;;;;;;;;;;;;5051719;28;1748;-60
2023/05/07 11:35:45;;;;;;;;;;;;;;;;;;5048009;28;5106;-57
2023/05/07 11:38:10;;;;;;;;;;;;;;;;;;5053210;28;4621;-60
2023/05/07 11:40:39;;;;;;;;;;;;;;;;;;5070016;28;4651;-59
2023/05/07 11:43:13;;;;;;;;;;;;;;;;;;5065377;28;4864;-60
2023/05/07 11:45:38;;;;;;;;;;;;;;;;;;5044591;28;2050;-62
2023/05/07 11:48:04;;;;;;;;;;;;;;;;;;5047175;28;4708;-60
2023/05/07 11:50:29;;;;;;;;;;;;;;;;;;5046956;28;4457;-59
2023/05/07 11:52:55;;;;;;;;;;;;;;;;;;5049409;28;4531;-60
2023/05/07 11:55:21;;;;;;;;;;;;;;;;;;5050046;28;4671;-59
2023/05/07 11:57:46;;;;;;;;;;;;;;;;;;5052318;28;1922;-58
2023/05/07 12:00:12;;;;;;;;;;;;;;;;;;5046801;28;4600;-58
2023/05/07 12:02:38;;;;;;;;;;;;;;;;;;5055042;28;4604;-62
2023/05/07 12:05:03;;;;;;;;;;;;;;;;;;5050070;28;4585;-65
2023/05/07 12:07:29;;;;;;;;;;;;;;;;;;5049141;28;4457;-63
2023/05/07 12:09:54;;;;;;;;;;;;;;;;;;5047624;28;6682;-65
2023/05/07 12:12:20;;;;;;;;;;;;;;;;;;5046937;28;1093;-66
2023/05/07 12:14:45;;;;;;;;;;;;;;;;;;5050048;28;4471;-65
2023/05/07 12:17:11;;;;;;;;;;;;;;;;;;5048384;28;5034;-64
2023/05/07 12:19:36;;;;;;;;;;;;;;;;;;5049556;28;4613;-66
2023/05/07 12:22:04;;;;;;;;;;;;;;;;;;5049940;28;4967;-66
2023/05/07 12:24:42;;;;;;;;;;;;;;;;;;5050064;28;1140;-66
2023/05/07 12:27:07;;;;;;;;;;;;;;;;;;5046059;28;4989;-63
2023/05/07 12:29:33;;;;;;;;;;;;;;;;;;5059333;28;4554;-65
2023/05/07 12:31:58;;;;;;;;;;;;;;;;;;5049704;28;4989;-64
2023/05/07 12:34:23;;;;;;;;;;;;;;;;;;5048133;28;4961;-66
2023/05/07 12:36:48;;;;;;;;;;;;;;;;;;5049971;28;2285;-63
2023/05/07 12:39:14;;;;;;;;;;;;;;;;;;5049461;28;4916;-66
2023/05/07 12:41:55;;;;;;;;;;;;;;;;;;5046471;28;4436;-67
2023/05/07 12:44:23;;;;;;;;;;;;;;;;;;5047897;28;4459;-67
2023/05/07 12:46:49;;;;;;;;;;;;;;;;;;5049250;28;4616;-63
2023/05/07 12:49:14;;;;;;;;;;;;;;;;;;5047767;28;4829;-66
2023/05/07 12:51:39;;;;;;;;;;;;;;;;;;5047703;28;1089;-65
2023/05/07 12:54:05;;;;;;;;;;;;;;;;;;5048374;28;4508;-64
2023/05/07 12:56:35;;;;;;;;;;;;;;;;;;5048748;28;4742;-64
2023/05/07 12:59:00;;;;;;;;;;;;;;;;;;5048957;28;4520;-64
2023/05/07 13:01:29;;;;;;;;;;;;;;;;;;5047299;28;4997;-66
2023/05/07 13:03:55;;;;;;;;;;;;;;;;;;5047187;28;4427;-66
2023/05/07 13:06:20;;;;;;;;;;;;;;;;;;5049282;28;1112;-64
2023/05/07 13:08:45;;;;;;;;;;;;;;;;;;5048989;28;6458;-65
2023/05/07 13:11:10;;;;;;;;;;;;;;;;;;5044819;28;4976;-63
2023/05/07 13:13:36;;;;;;;;;;;;;;;;;;5048831;28;4433;-64
2023/05/07 13:16:02;;;;;;;;;;;;;;;;;;5048829;28;4967;-63
2023/05/07 13:18:28;;;;;;;;;;;;;;;;;;5049015;28;1934;-64
2023/05/07 13:20:54;;;;;;;;;;;;;;;;;;5047553;28;4835;-63
2023/05/07 13:23:19;;;;;;;;;;;;;;;;;;5048607;28;4606;-63
2023/05/07 13:25:44;;;;;;;;;;;;;;;;;;5047409;28;5016;-65
2023/05/07 13:28:10;;;;;;;;;;;;;;;;;;5048793;28;4683;-65
2023/05/07 13:30:35;;;;;;;;;;;;;;;;;;5049240;28;1041;-65
2023/05/07 13:33:00;;;;;;;;;;;;;;;;;;5047765;28;4594;-65
2023/05/07 13:35:26;;;;;;;;;;;;;;;;;;5048475;28;4994;-63
2023/05/07 13:37:52;;;;;;;;;;;;;;;;;;5048261;28;4650;-64
2023/05/07 13:40:21;;;;;;;;;;;;;;;;;;5045558;28;4707;-65
2023/05/07 13:42:46;;;;;;;;;;;;;;;;;;5048715;28;1077;-63
2023/05/07 13:45:13;;;;;;;;;;;;;;;;;;5048132;28;4559;-65
2023/05/07 13:47:39;;;;;;;;;;;;;;;;;;5048053;28;4599;-65
2023/05/07 13:50:05;;;;;;;;;;;;;;;;;;5030186;28;5042;-64
2023/05/07 13:52:30;;;;;;;;;;;;;;;;;;5048135;28;4478;-65
2023/05/07 13:54:56;;;;;;;;;;;;;;;;;;5048060;28;4633;-66
2023/05/07 13:57:21;;;;;;;;;;;;;;;;;;5048497;28;1977;-64
2023/05/07 13:59:46;;;;;;;;;;;;;;;;;;5047734;28;4804;-62
2023/05/07 14:02:12;;;;;;;;;;;;;;;;;;5045920;28;5001;-65
2023/05/07 14:04:37;;;;;;;;;;;;;;;;;;5047935;28;4685;-60
2023/05/07 14:07:02;;;;;;;;;;;;;;;;;;5047934;28;4664;-64
2023/05/07 14:09:27;;;;;;;;;;;;;;;;;;5048466;28;6274;-63
2023/05/07 14:11:53;;;;;;;;;;;;;;;;;;5043289;28;5072;-64
2023/05/07 14:14:18;;;;;;;;;;;;;;;;;;5047699;28;4543;-65
2023/05/07 14:16:44;;;;;;;;;;;;;;;;;;5047651;28;4646;-64
2023/05/07 14:19:10;;;;;;;;;;;;;;;;;;5047842;28;5417;-65
2023/05/07 14:21:35;;;;;;;;;;;;;;;;;;5031050;28;1260;-63
2023/05/07 14:24:00;;;;;;;;;;;;;;;;;;5047960;28;4461;-64
2023/05/07 14:26:26;;;;;;;;;;;;;;;;;;5047815;28;4582;-66
2023/05/07 14:28:52;;;;;;;;;;;;;;;;;;5047747;28;5195;-64
2023/05/07 14:31:17;;;;;;;;;;;;;;;;;;5047372;28;4889;-64
2023/05/07 14:33:42;;;;;;;;;;;;;;;;;;5048106;28;1170;-65
2023/05/07 14:36:08;;;;;;;;;;;;;;;;;;5047244;28;4392;-65
2023/05/07 14:38:33;;;;;;;;;;;;;;;;;;5047497;28;4651;-65
2023/05/07 14:40:58;;;;;;;;;;;;;;;;;;5045635;28;4666;-64
2023/05/07 14:43:24;;;;;;;;;;;;;;;;;;5047368;28;4450;-64
2023/05/07 14:45:49;;;;;;;;;;;;;;;;;;5047786;28;1160;-63
2023/05/07 14:48:14;;;;;;;;;;;;;;;;;;5047698;28;4427;-65
2023/05/07 14:50:43;;;;;;;;;;;;;;;;;;5046099;28;4736;-65
2023/05/07 14:53:08;;;;;;;;;;;;;;;;;;5047306;28;4490;-65
2023/05/07 14:55:33;;;;;;;;;;;;;;;;;;5047805;28;4919;-63
2023/05/07 14:57:59;;;;;;;;;;;;;;;;;;5047296;28;4486;-64
2023/05/07 15:00:24;;;;;;;;;;;;;;;;;;5047662;28;1101;-65
2023/05/07 15:02:49;;;;;;;;;;;;;;;;;;5044411;28;4569;-63
2023/05/07 15:05:15;;;;;;;;;;;;;;;;;;5047331;28;4979;-64
2023/05/07 15:07:40;;;;;;;;;;;;;;;;;;5047242;28;5022;-65
2023/05/07 15:10:05;;;;;;;;;;;;;;;;;;5043743;28;6563;-65
2023/05/07 15:12:31;;;;;;;;;;;;;;;;;;5046038;28;1075;-65
2023/05/07 15:14:56;;;;;;;;;;;;;;;;;;5047044;28;4574;-65
2023/05/07 15:17:21;;;;;;;;;;;;;;;;;;5045433;28;4469;-61
2023/05/07 15:19:46;;;;;;;;;;;;;;;;;;5044922;28;4627;-62
2023/05/07 15:22:12;;;;;;;;;;;;;;;;;;5058380;28;5038;-66
2023/05/07 15:24:37;;;;;;;;;;;;;;;;;;5051067;28;1088;-62
2023/05/07 15:27:02;;;;;;;;;;;;;;;;;;5050908;28;5027;-67
2023/05/07 15:29:28;;;;;;;;;;;;;;;;;;5051311;28;4995;-67
2023/05/07 15:31:54;;;;;;;;;;;;;;;;;;5051180;28;4473;-66
2023/05/07 15:34:19;;;;;;;;;;;;;;;;;;5048062;28;4477;-65
2023/05/07 15:36:44;;;;;;;;;;;;;;;;;;5050837;28;1975;-66
2023/05/07 15:39:10;;;;;;;;;;;;;;;;;;5048475;28;4440;-66
2023/05/07 15:41:36;;;;;;;;;;;;;;;;;;5049706;28;4612;-67
2023/05/07 15:44:02;;;;;;;;;;;;;;;;;;5054917;28;4448;-67
2023/05/07 15:46:27;;;;;;;;;;;;;;;;;;5050219;28;5151;-63
2023/05/07 15:48:53;;;;;;;;;;;;;;;;;;5041985;28;4592;-61
2023/05/07 15:51:19;;;;;;;;;;;;;;;;;;5053449;28;2928;-58
2023/05/07 15:53:44;;;;;;;;;;;;;;;;;;5048653;28;4466;-57
2023/05/07 15:56:10;;;;;;;;;;;;;;;;;;5058461;28;5145;-57
2023/05/07 15:58:35;;;;;;;;;;;;;;;;;;5046729;28;4512;-58
2023/05/07 16:01:00;;;;;;;;;;;;;;;;;;5051300;28;5253;-62
2023/05/07 16:03:26;;;;;;;;;;;;;;;;;;5037267;28;1838;-58
2023/05/07 16:05:51;;;;;;;;;;;;;;;;;;5052140;28;4471;-58
2023/05/07 16:08:17;;;;;;;;;;;;;;;;;;5042387;28;5446;-57
2023/05/07 16:10:42;;;;;;;;;;;;;;;;;;5046637;28;6440;-61
2023/05/07 16:13:07;;;;;;;;;;;;;;;;;;5049411;28;4685;-57
2023/05/07 16:15:32;;;;;;;;;;;;;;;;;;5035262;28;1860;-60
2023/05/07 16:17:58;;;;;;;;;;;;;;;;;;5038835;28;4631;-58
2023/05/07 16:20:30;;;;;;;;;;;;;;;;;;5050530;28;4759;-61
2023/05/07 16:22:56;;;;;;;;;;;;;;;;;;5049067;28;4549;-60
2023/05/07 16:25:21;;;;;;;;;;;;;;;;;;5049370;28;4939;-60
2023/05/07 16:27:46;;;;;;;;;;;;;;;;;;5046942;28;1770;-59
2023/05/07 16:30:11;;;;;;;;;;;;;;;;;;5048718;28;4484;-59
2023/05/07 16:32:37;;;;;;;;;;;;;;;;;;5049150;28;4446;-57
2023/05/07 16:35:02;;;;;;;;;;;;;;;;;;5047703;28;4735;-57
2023/05/07 16:37:28;;;;;;;;;;;;;;;;;;5047543;28;4692;-56
2023/05/07 16:39:53;;;;;;;;;;;;;;;;;;5047905;28;4602;-59
2023/05/07 16:42:18;;;;;;;;;;;;;;;;;;5042509;28;1887;-57
2023/05/07 16:44:43;;;;;;;;;;;;;;;;;;5047918;28;4624;-59
2023/05/07 16:47:09;;;;;;;;;;;;;;;;;;5049669;28;4487;-59
2023/05/07 16:49:34;;;;;;;;;;;;;;;;;;5054151;28;4641;-60
2023/05/07 16:51:59;;;;;;;;;;;;;;;;;;5051690;28;5214;-59
2023/05/07 16:54:25;;;;;;;;;;;;;;;;;;5050271;28;1853;-59